Aérodrome :
LOGIN :

S'inscrire | Disclaimer

   EN    FR    IT 

 










Légende :    VFR   VFR Marginal   IFR   IFR Intensif   IFR Très Intensif
Visi : 
Plafond : 
>= 8 km
>= 3000ft
5 à 8 km
1000 à 3000 ft
1500m à 5 km
500 à 1000 ft
800 à 1500m
200 à 500 ft
< 800m
< 200 ft
Symboles :   Orages  Brouillard  Fortes neiges  Fortes précipitations  Vent > 20 kt
SIGMETs :   Divers  Orages  Givrage  Turbulence  Onde Orograph.  Cendres Volcan.






- Altitude de l'aérodrome : 313 ft
- Code IATA : LEH


LFOH - Le Havre Octeville

DERNIER METAR :
  • 301600Z AUTO 28005KT 250V310 9999 FEW034/// BKN052/// BKN068/// //////TCU 15/11 Q1014 TEMPO 4000 SHRA BKN014CB BKN020

METARs EXPIRÉS :
  • 301530Z AUTO 23007KT 9999 -RA //////CB 15/11 Q1014 TEMPO 4000 SHRA BKN014CB BKN020
  • 301500Z AUTO 24006KT 210V280 CAVOK 16/10 Q1014 TEMPO 4000 SHRA BKN014CB BKN020
  • 301430Z AUTO 26006KT 230V290 9999 -RA FEW032 SCT070 BKN084 16/09 Q1014 TEMPO 4000 SHRA BKN014CB BKN020
  • 301400Z AUTO 25005KT 180V280 9999 //////TCU 17/09 Q1013 TEMPO 4000 SHRA BKN014CB BKN020
  • 301330Z AUTO 30004KT 250V340 8000 -RA FEW019/// SCT049/// BKN056/// ///CB 14/10 Q1014 TEMPO 4000 SHRA BKN014CB BKN020

TAF TAF LFOH
Valide du 30 à 12h jusqu'au 01 à 12h UTC


301100Z 3012/0112 24006KT 9999 SCT025 BKN080
TEMPO 3012/0102 4000 SHRA BKN014CB BKN020
ATIS : +33 2 35 54 64 93



MET'MAP, la Météo Aéronautique d'un coup d'oeil ! - Copyright ORBIFLY Décembre 2007 - Disclaimer

ORBIFLY MET'MAP TEAM :

Programmation & Développement : Alexandra Zaïnal
Sur une idée originale de : Baudouin d'Aumeries
Soutien technique & logistique : Manuel Goepfert
Assistance : Marc-Olivier Méhu




SOURCES & CREDITS :

   NOAA